Time;durP1;ratioP1;P1;durP2;ratioP2;P2;SDS_P1;SDS_P2;PMS_P1;PMS_P2;Temp;Humidity;BMP_temperature;BMP_pressure;BME280_temperature;BME280_humidity;BME280_pressure;Samples;Min_cycle;Max_cycle;Signal;HPM_P1;HPM_P2
2021/12/27 00:01:02;;;;;;;25.00;16.13;;;3.80;99.90;;;;;;5041014;28;20125;-60
2021/12/27 00:03:27;;;;;;;26.38;16.77;;;3.80;99.90;;;;;;5072834;28;20013;-61
2021/12/27 00:05:53;;;;;;;25.25;15.82;;;3.70;99.90;;;;;;5078185;28;20393;-60
2021/12/27 00:08:19;;;;;;;26.70;16.73;;;3.70;99.90;;;;;;5072699;28;20401;-60
2021/12/27 00:10:44;;;;;;;24.95;15.38;;;3.70;99.90;;;;;;5069875;28;20075;-61
2021/12/27 00:13:10;;;;;;;25.55;17.40;;;3.70;99.90;;;;;;5078088;28;20025;-61
2021/12/27 00:15:36;;;;;;;24.52;15.88;;;3.70;99.90;;;;;;5074685;28;20030;-61
2021/12/27 00:18:02;;;;;;;27.42;17.45;;;3.70;99.90;;;;;;5078196;28;20034;-61
2021/12/27 00:20:28;;;;;;;26.35;17.58;;;3.70;99.90;;;;;;5069576;28;20499;-60
2021/12/27 00:22:53;;;;;;;24.02;15.90;;;3.60;99.90;;;;;;5072417;28;20045;-60
2021/12/27 00:25:20;;;;;;;28.42;17.23;;;3.60;99.90;;;;;;5057076;28;20380;-61
2021/12/27 00:27:46;;;;;;;23.23;15.90;;;3.60;99.90;;;;;;5069323;28;20027;-61
2021/12/27 00:30:15;;;;;;;24.42;16.88;;;3.60;99.90;;;;;;5071971;28;20492;-61
2021/12/27 00:32:43;;;;;;;25.20;17.30;;;3.60;99.90;;;;;;5075005;28;20028;-61
2021/12/27 00:35:12;;;;;;;26.05;17.05;;;3.60;99.90;;;;;;5074867;28;20012;-60
2021/12/27 00:37:38;;;;;;;26.08;15.45;;;3.60;99.90;;;;;;5069401;28;20106;-60
2021/12/27 00:40:05;;;;;;;26.08;16.52;;;3.60;99.90;;;;;;5072064;28;20609;-61
2021/12/27 00:42:30;;;;;;;32.60;16.90;;;3.60;99.90;;;;;;5068682;28;20497;-61
2021/12/27 00:44:56;;;;;;;25.95;16.50;;;3.60;99.90;;;;;;5080272;28;20043;-61
2021/12/27 00:47:22;;;;;;;25.08;16.02;;;3.60;99.90;;;;;;5072122;28;20024;-61
2021/12/27 00:49:47;;;;;;;27.45;15.93;;;3.60;99.90;;;;;;5074220;28;20491;-61
2021/12/27 00:52:13;;;;;;;25.10;15.95;;;3.60;99.90;;;;;;5074765;28;20212;-61
2021/12/27 00:54:39;;;;;;;25.77;16.25;;;3.60;99.90;;;;;;5076139;28;20350;-61
2021/12/27 00:57:04;;;;;;;23.83;14.68;;;3.60;99.90;;;;;;5078687;28;20548;-61
2021/12/27 00:59:30;;;;;;;26.98;16.55;;;3.60;99.90;;;;;;5074623;28;20554;-60
2021/12/27 01:01:56;;;;;;;25.85;16.02;;;3.60;99.90;;;;;;5074673;28;20074;-60
2021/12/27 01:04:22;;;;;;;23.23;14.82;;;3.60;99.90;;;;;;5071796;28;20752;-61
2021/12/27 01:06:48;;;;;;;24.15;15.27;;;3.60;99.90;;;;;;5050702;28;20472;-60
2021/12/27 01:09:22;;;;;;;21.98;14.88;;;3.60;99.90;;;;;;5068468;28;20028;-61
2021/12/27 01:14:41;;;;;;;25.30;16.52;;;3.60;99.90;;;;;;5071303;28;20031;-60
2021/12/27 01:17:07;;;;;;;22.65;14.88;;;3.60;99.90;;;;;;5072243;28;20111;-60
2021/12/27 01:19:33;;;;;;;24.42;15.75;;;3.60;99.90;;;;;;5068300;28;20111;-61
2021/12/27 01:21:58;;;;;;;24.25;15.27;;;3.60;99.90;;;;;;5068765;28;20464;-61
2021/12/27 01:24:24;;;;;;;23.20;15.27;;;3.60;99.90;;;;;;5071033;28;20445;-61
2021/12/27 01:26:49;;;;;;;22.15;14.25;;;3.60;99.90;;;;;;5073951;28;20053;-60
2021/12/27 01:29:15;;;;;;;22.63;14.35;;;3.60;99.90;;;;;;5058731;28;20486;-61
2021/12/27 01:31:40;;;;;;;21.13;13.70;;;3.70;99.90;;;;;;5072545;28;20023;-60
2021/12/27 01:34:06;;;;;;;23.55;15.02;;;3.70;99.90;;;;;;5077315;28;20024;-61
2021/12/27 01:36:32;;;;;;;22.73;13.93;;;3.70;99.90;;;;;;5076971;28;20028;-60
2021/12/27 01:38:59;;;;;;;23.33;14.77;;;3.70;99.90;;;;;;5070930;28;20074;-61
2021/12/27 01:41:25;;;;;;;23.60;14.68;;;3.70;99.90;;;;;;5067972;28;20480;-61
2021/12/27 01:43:52;;;;;;;22.42;14.88;;;3.70;99.90;;;;;;5070346;28;20032;-60
2021/12/27 01:46:22;;;;;;;22.60;15.13;;;3.70;99.90;;;;;;5073532;28;20021;-61
2021/12/27 01:48:55;;;;;;;24.00;15.85;;;3.70;99.90;;;;;;5073696;28;20028;-61
2021/12/27 01:51:22;;;;;;;26.75;16.83;;;3.70;99.90;;;;;;5070869;28;20036;-61
2021/12/27 01:53:48;;;;;;;23.90;15.82;;;3.70;99.90;;;;;;5070473;28;20032;-60
2021/12/27 01:56:16;;;;;;;23.90;15.38;;;3.70;99.90;;;;;;5079433;28;20028;-60
2021/12/27 01:58:43;;;;;;;23.90;15.57;;;3.70;99.90;;;;;;5073638;28;20020;-60
2021/12/27 02:01:11;;;;;;;26.08;16.90;;;3.70;99.90;;;;;;5070633;28;20352;-60
2021/12/27 02:03:40;;;;;;;24.08;15.40;;;3.70;99.90;;;;;;5067883;28;20427;-61
2021/12/27 02:06:08;;;;;;;25.33;15.20;;;3.70;99.90;;;;;;5070654;28;20476;-60
2021/12/27 02:08:36;;;;;;;22.85;14.52;;;3.70;99.90;;;;;;5070698;28;20032;-60
2021/12/27 02:11:03;;;;;;;22.65;14.85;;;3.70;99.90;;;;;;5075336;28;20024;-60
2021/12/27 02:13:29;;;;;;;26.90;16.13;;;3.70;99.90;;;;;;5067807;28;20071;-60
2021/12/27 02:15:55;;;;;;;23.25;15.07;;;3.70;99.90;;;;;;5072716;28;20432;-61
2021/12/27 02:18:20;;;;;;;23.38;15.38;;;3.70;99.90;;;;;;5073525;28;20058;-60
2021/12/27 02:20:46;;;;;;;30.98;16.38;;;3.70;99.90;;;;;;5070567;28;20025;-60
2021/12/27 02:23:16;;;;;;;27.20;16.90;;;3.80;99.90;;;;;;5070086;28;20080;-60
2021/12/27 02:25:47;;;;;;;24.90;16.50;;;3.80;99.90;;;;;;5070745;28;20081;-61
2021/12/27 02:28:13;;;;;;;24.92;16.27;;;3.70;99.90;;;;;;5052441;28;20060;-61
2021/12/27 02:30:41;;;;;;;26.83;16.55;;;3.70;99.90;;;;;;5070148;28;20020;-60
2021/12/27 02:33:08;;;;;;;25.20;16.23;;;3.70;99.90;;;;;;5067525;28;20012;-60
2021/12/27 02:35:39;;;;;;;26.88;16.60;;;3.70;99.90;;;;;;5067227;28;20060;-60
2021/12/27 02:38:07;;;;;;;24.48;15.38;;;3.70;99.90;;;;;;5070379;28;20028;-60
2021/12/27 02:40:34;;;;;;;23.90;14.57;;;3.70;99.90;;;;;;5073129;28;20020;-60
2021/12/27 02:43:01;;;;;;;26.13;16.83;;;3.70;99.90;;;;;;5070684;28;20024;-61
2021/12/27 02:45:29;;;;;;;27.48;16.92;;;3.70;99.90;;;;;;5072666;28;20457;-61
2021/12/27 02:47:56;;;;;;;22.83;14.73;;;3.70;99.90;;;;;;5070083;28;20048;-60
2021/12/27 02:50:24;;;;;;;33.78;17.83;;;3.80;99.90;;;;;;5067417;28;20021;-61
2021/12/27 02:52:50;;;;;;;27.42;16.98;;;3.80;99.90;;;;;;5070223;28;20024;-60
2021/12/27 02:55:16;;;;;;;30.50;17.20;;;3.80;99.90;;;;;;5074515;28;20031;-60
2021/12/27 02:57:50;;;;;;;26.48;15.85;;;3.80;99.90;;;;;;5071192;28;20027;-61
2021/12/27 03:00:19;;;;;;;26.65;16.98;;;3.80;99.90;;;;;;5076428;28;20413;-61
2021/12/27 03:02:47;;;;;;;29.30;17.60;;;3.80;99.90;;;;;;5073968;28;20558;-60
2021/12/27 03:05:16;;;;;;;31.52;17.92;;;3.80;99.90;;;;;;5053144;28;20033;-60
2021/12/27 03:07:43;;;;;;;29.92;17.80;;;3.90;99.90;;;;;;5057036;28;20044;-61
2021/12/27 03:10:12;;;;;;;28.77;17.13;;;3.90;99.90;;;;;;5056813;28;20020;-61
2021/12/27 03:12:38;;;;;;;33.03;18.58;;;3.90;99.90;;;;;;5066710;28;20020;-61
2021/12/27 03:15:08;;;;;;;28.33;17.55;;;3.80;99.90;;;;;;5070910;28;20021;-61
2021/12/27 03:17:35;;;;;;;29.75;17.42;;;3.90;99.90;;;;;;5072929;28;20017;-61
2021/12/27 03:20:05;;;;;;;29.17;17.67;;;3.80;99.90;;;;;;5092188;28;20081;-61
2021/12/27 03:22:31;;;;;;;26.40;17.10;;;3.80;99.90;;;;;;5085688;28;20551;-61
2021/12/27 03:24:56;;;;;;;33.75;18.33;;;3.80;99.90;;;;;;5076080;28;20115;-61
2021/12/27 03:27:22;;;;;;;28.30;18.55;;;3.90;99.90;;;;;;5073234;28;20049;-61
2021/12/27 03:29:47;;;;;;;27.63;17.38;;;3.90;99.90;;;;;;5075814;28;20463;-61
2021/12/27 03:32:14;;;;;;;31.73;18.55;;;3.90;99.90;;;;;;5076371;28;20020;-61
2021/12/27 03:34:52;;;;;;;28.60;18.23;;;3.90;99.90;;;;;;5073422;28;20469;-61
2021/12/27 03:37:18;;;;;;;31.38;18.50;;;3.90;99.90;;;;;;5055260;28;20027;-61
2021/12/27 03:39:44;;;;;;;33.70;20.20;;;3.90;99.90;;;;;;5073095;28;20560;-61
2021/12/27 03:42:09;;;;;;;30.33;19.80;;;3.90;99.90;;;;;;5073248;28;20111;-60
2021/12/27 03:44:35;;;;;;;31.73;19.65;;;4.00;99.90;;;;;;5077568;28;20064;-61
2021/12/27 03:47:00;;;;;;;29.95;18.92;;;3.90;99.90;;;;;;5052449;28;20028;-61
2021/12/27 03:49:26;;;;;;;31.40;18.95;;;4.00;99.90;;;;;;5070527;28;20381;-61
2021/12/27 03:51:51;;;;;;;34.55;20.42;;;3.90;99.90;;;;;;5078764;28;20379;-61
2021/12/27 03:54:17;;;;;;;28.42;17.85;;;3.90;99.90;;;;;;5073012;28;20494;-61
2021/12/27 03:56:42;;;;;;;36.78;21.90;;;4.00;99.90;;;;;;5074958;28;20031;-61
2021/12/27 03:59:21;;;;;;;28.17;18.75;;;4.00;99.90;;;;;;5073110;28;20059;-60
2021/12/27 04:01:48;;;;;;;32.13;20.48;;;4.00;99.90;;;;;;5070196;28;20086;-61
2021/12/27 04:04:13;;;;;;;31.65;20.17;;;4.00;99.90;;;;;;5069790;28;20482;-60
2021/12/27 04:06:39;;;;;;;34.63;19.75;;;4.00;99.90;;;;;;5073296;28;20021;-61
2021/12/27 04:09:05;;;;;;;33.00;21.17;;;4.00;99.90;;;;;;5074268;28;20166;-60
2021/12/27 04:11:31;;;;;;;33.47;20.65;;;4.00;99.90;;;;;;5069874;28;20113;-60
2021/12/27 04:13:58;;;;;;;34.38;21.17;;;4.00;99.90;;;;;;5069685;28;20480;-61
2021/12/27 04:16:23;;;;;;;34.65;21.48;;;4.00;99.90;;;;;;5075159;28;20032;-61
2021/12/27 04:18:49;;;;;;;31.70;20.48;;;4.00;99.90;;;;;;5072403;28;20032;-61
2021/12/27 04:21:14;;;;;;;34.20;21.70;;;4.00;99.90;;;;;;5078097;28;20346;-61
2021/12/27 04:23:41;;;;;;;35.10;21.27;;;4.10;99.90;;;;;;5078474;28;20499;-60
2021/12/27 04:26:07;;;;;;;37.13;21.98;;;4.10;99.90;;;;;;5075168;28;20017;-61
2021/12/27 04:28:32;;;;;;;33.03;21.42;;;4.10;99.90;;;;;;5075106;28;20420;-60
2021/12/27 04:30:58;;;;;;;34.88;22.65;;;4.10;99.90;;;;;;5054262;28;20055;-61
2021/12/27 04:33:24;;;;;;;36.67;22.48;;;4.10;99.90;;;;;;5057460;28;20028;-60
2021/12/27 04:35:49;;;;;;;36.20;22.40;;;4.10;99.90;;;;;;5075313;28;20017;-61
2021/12/27 04:38:15;;;;;;;35.75;21.92;;;4.10;99.90;;;;;;5072323;28;20028;-60
2021/12/27 04:40:44;;;;;;;36.55;23.83;;;4.10;99.90;;;;;;5074945;28;20486;-60
2021/12/27 04:43:14;;;;;;;39.15;23.85;;;4.10;99.90;;;;;;5074820;28;20404;-60
2021/12/27 04:45:41;;;;;;;35.03;21.60;;;4.10;99.90;;;;;;5069272;28;20031;-60
2021/12/27 04:48:07;;;;;;;35.70;22.90;;;4.10;99.90;;;;;;5051410;28;20505;-61
2021/12/27 04:50:34;;;;;;;35.00;22.90;;;4.20;99.90;;;;;;5053935;28;20901;-61
2021/12/27 04:53:00;;;;;;;35.25;24.42;;;4.20;99.90;;;;;;5071771;28;20055;-61
2021/12/27 04:55:26;;;;;;;33.22;21.98;;;4.20;99.90;;;;;;5071762;28;20016;-60
2021/12/27 04:57:53;;;;;;;38.65;24.10;;;4.20;99.90;;;;;;5074634;28;20028;-61
2021/12/27 05:00:19;;;;;;;34.92;23.13;;;4.20;99.90;;;;;;5069120;28;20015;-61
2021/12/27 05:02:45;;;;;;;35.92;22.27;;;4.20;99.90;;;;;;5074397;28;20436;-60
2021/12/27 05:05:11;;;;;;;43.13;24.88;;;4.20;99.90;;;;;;5074187;28;20080;-60
2021/12/27 05:07:36;;;;;;;34.90;23.00;;;4.20;99.90;;;;;;5074344;28;20161;-61
2021/12/27 05:10:04;;;;;;;34.28;22.98;;;4.20;99.90;;;;;;5056211;28;20507;-61
2021/12/27 05:12:30;;;;;;;32.47;21.23;;;4.20;99.90;;;;;;5071639;28;20081;-61
2021/12/27 05:14:55;;;;;;;33.63;21.50;;;4.30;99.90;;;;;;5071215;28;20021;-61
2021/12/27 05:17:21;;;;;;;33.53;22.30;;;4.30;99.90;;;;;;5070648;28;20024;-60
2021/12/27 05:19:46;;;;;;;35.10;22.42;;;4.30;99.90;;;;;;5074450;28;20035;-61
2021/12/27 05:22:12;;;;;;;34.58;21.88;;;4.30;99.90;;;;;;5079192;28;20483;-61
2021/12/27 05:24:37;;;;;;;35.15;23.33;;;4.40;99.90;;;;;;5071036;28;20535;-60
2021/12/27 05:27:03;;;;;;;35.70;22.35;;;4.40;99.90;;;;;;5072570;28;20221;-61
2021/12/27 05:29:29;;;;;;;30.17;20.75;;;4.40;99.90;;;;;;5073156;28;20336;-60
2021/12/27 05:31:58;;;;;;;33.05;21.33;;;4.40;99.90;;;;;;5082857;28;20024;-61
2021/12/27 05:34:24;;;;;;;35.22;22.50;;;4.40;99.90;;;;;;5072692;28;20024;-61
2021/12/27 05:36:49;;;;;;;30.90;20.27;;;4.40;99.90;;;;;;5068245;28;20287;-61
2021/12/27 05:39:19;;;;;;;32.75;20.48;;;4.40;99.90;;;;;;5055859;28;20052;-60
2021/12/27 05:41:45;;;;;;;31.55;20.25;;;4.40;99.90;;;;;;5081229;28;20029;-61
2021/12/27 05:44:11;;;;;;;31.08;21.05;;;4.40;99.90;;;;;;5068104;28;20078;-61
2021/12/27 05:46:36;;;;;;;32.55;20.77;;;4.40;99.90;;;;;;5068385;28;20103;-61
2021/12/27 05:49:02;;;;;;;32.20;21.10;;;4.40;99.90;;;;;;5073005;28;20111;-60
2021/12/27 05:51:28;;;;;;;31.70;20.80;;;4.40;99.90;;;;;;5068131;28;20536;-61
2021/12/27 05:53:55;;;;;;;32.70;20.45;;;4.40;99.90;;;;;;5073790;28;20287;-61
2021/12/27 05:56:21;;;;;;;30.60;20.00;;;4.40;99.90;;;;;;5070950;28;20392;-61
2021/12/27 05:58:47;;;;;;;31.35;20.75;;;4.40;99.90;;;;;;5069744;28;20024;-61
2021/12/27 06:01:12;;;;;;;30.25;20.55;;;4.50;99.90;;;;;;5079811;28;20031;-61
2021/12/27 06:03:38;;;;;;;32.90;20.80;;;4.50;99.90;;;;;;5069770;28;20470;-61
2021/12/27 06:06:04;;;;;;;32.45;21.13;;;4.60;99.90;;;;;;5053713;28;20075;-61
2021/12/27 06:08:29;;;;;;;26.85;18.65;;;4.50;99.90;;;;;;5070937;28;20036;-61
2021/12/27 06:10:55;;;;;;;34.08;22.33;;;4.50;99.90;;;;;;5071835;28;20389;-61
2021/12/27 06:13:20;;;;;;;29.42;20.83;;;4.60;99.90;;;;;;5071719;28;20051;-61
2021/12/27 06:15:46;;;;;;;27.58;20.13;;;4.50;99.90;;;;;;5076216;28;20020;-61
2021/12/27 06:18:11;;;;;;;31.90;20.40;;;4.50;99.90;;;;;;5091869;28;20032;-61
2021/12/27 06:20:37;;;;;;;34.67;21.33;;;4.50;99.90;;;;;;5078259;28;20036;-61
2021/12/27 06:23:02;;;;;;;31.50;20.35;;;4.50;99.90;;;;;;5071563;28;20063;-61
2021/12/27 06:25:28;;;;;;;33.22;21.60;;;4.50;99.90;;;;;;5079530;28;20029;-61
2021/12/27 06:27:54;;;;;;;34.05;22.80;;;4.50;99.90;;;;;;5087881;28;20082;-61
2021/12/27 06:30:21;;;;;;;33.20;21.92;;;4.50;99.90;;;;;;5075739;28;20074;-61
2021/12/27 06:32:57;;;;;;;33.30;22.02;;;4.50;99.90;;;;;;5081040;28;20013;-61
2021/12/27 06:36:00;;;;;;;34.63;22.55;;;4.50;99.90;;;;;;5095697;28;20016;-61
2021/12/27 06:39:15;;;;;;;;;;;;;;;;;;;;;
2021/12/27 06:41:41;;;;;;;29.33;20.02;;;4.50;99.90;;;;;;5095528;28;20023;-61
2021/12/27 06:44:07;;;;;;;33.95;22.75;;;4.50;99.90;;;;;;5095468;28;20110;-61
2021/12/27 06:46:33;;;;;;;34.50;21.52;;;4.50;99.90;;;;;;5095637;28;20020;-61
2021/12/27 06:48:58;;;;;;;34.28;21.20;;;4.60;99.90;;;;;;5077488;28;20104;-60
2021/12/27 06:51:24;;;;;;;34.92;22.15;;;4.50;99.90;;;;;;5095177;28;20046;-61
2021/12/27 06:53:49;;;;;;;33.55;22.15;;;4.60;99.90;;;;;;5095501;28;20051;-61
2021/12/27 06:56:15;;;;;;;31.27;21.55;;;4.60;99.90;;;;;;5095867;28;20032;-60
2021/12/27 06:58:40;;;;;;;33.60;22.52;;;4.60;99.90;;;;;;5095313;28;20036;-61
2021/12/27 07:01:07;;;;;;;28.77;20.77;;;4.60;99.90;;;;;;5094252;28;20020;-61
2021/12/27 07:03:32;;;;;;;34.00;22.48;;;4.60;99.90;;;;;;5094707;28;20127;-60
2021/12/27 07:05:59;;;;;;;33.25;22.20;;;4.60;99.90;;;;;;5094176;28;20127;-61
2021/12/27 07:08:25;;;;;;;30.10;20.58;;;4.60;99.90;;;;;;5095225;28;20032;-60
2021/12/27 07:11:09;;;;;;;29.95;20.02;;;4.60;99.90;;;;;;5095043;28;20024;-61
2021/12/27 07:14:13;;;;;;;29.70;19.85;;;4.60;99.90;;;;;;5076880;28;20442;-61
2021/12/27 07:19:29;;;;;;;30.85;20.27;;;4.70;99.90;;;;;;5042147;28;20835;-61
2021/12/27 07:21:55;;;;;;;33.45;22.25;;;4.70;99.90;;;;;;5052258;28;20108;-61
2021/12/27 07:24:21;;;;;;;30.67;20.65;;;4.70;99.90;;;;;;5035232;28;20551;-61
2021/12/27 07:26:55;;;;;;;31.98;21.13;;;4.80;99.90;;;;;;5035408;28;20029;-61
2021/12/27 07:29:21;;;;;;;27.70;19.67;;;4.80;99.90;;;;;;5052197;28;20037;-61
2021/12/27 07:31:47;;;;;;;35.38;21.25;;;4.80;99.90;;;;;;5052400;28;20560;-61
2021/12/27 07:34:13;;;;;;;29.73;18.33;;;4.80;99.90;;;;;;5052104;28;20490;-60
2021/12/27 07:36:39;;;;;;;29.45;19.95;;;4.90;99.90;;;;;;5052157;28;20433;-60
2021/12/27 07:39:06;;;;;;;29.38;20.17;;;4.90;99.90;;;;;;5035478;28;20436;-60
2021/12/27 07:41:49;;;;;;;28.05;19.33;;;4.90;99.90;;;;;;5078192;28;20064;-61
2021/12/27 07:44:16;;;;;;;33.67;20.10;;;4.90;99.90;;;;;;5094654;28;20063;-60
2021/12/27 07:46:43;;;;;;;29.42;19.45;;;4.90;99.90;;;;;;5094664;28;20020;-61
2021/12/27 07:49:10;;;;;;;29.25;18.80;;;4.90;99.90;;;;;;5094609;28;20028;-61
2021/12/27 07:51:36;;;;;;;28.52;18.30;;;4.90;99.90;;;;;;5094438;28;20025;-61
2021/12/27 07:54:02;;;;;;;29.02;18.88;;;5.00;99.90;;;;;;5094089;28;20074;-61
2021/12/27 07:56:28;;;;;;;28.15;18.65;;;5.00;99.90;;;;;;5076362;28;20062;-61
2021/12/27 07:58:54;;;;;;;27.52;17.77;;;5.00;99.90;;;;;;5094318;28;20028;-61
2021/12/27 08:01:19;;;;;;;25.42;17.83;;;5.00;99.90;;;;;;5094261;28;20036;-61
2021/12/27 08:03:45;;;;;;;26.50;18.02;;;5.10;99.90;;;;;;5094137;28;20028;-60
2021/12/27 08:06:10;;;;;;;28.58;17.38;;;5.10;99.90;;;;;;5094232;28;20036;-61
2021/12/27 08:08:36;;;;;;;29.75;17.67;;;5.10;99.90;;;;;;5075688;28;20501;-60
2021/12/27 08:11:05;;;;;;;27.80;18.77;;;5.10;99.90;;;;;;5094094;28;20039;-61
2021/12/27 08:13:30;;;;;;;26.35;16.95;;;5.20;99.90;;;;;;5075696;28;20047;-61
2021/12/27 08:15:56;;;;;;;23.45;16.08;;;5.20;99.90;;;;;;5093934;28;20020;-61
2021/12/27 08:18:21;;;;;;;29.15;17.65;;;5.20;99.90;;;;;;5094041;28;20035;-60
2021/12/27 08:20:48;;;;;;;23.50;16.23;;;5.30;99.90;;;;;;5093886;28;20412;-61
2021/12/27 08:29:16;;;;;;;21.88;15.68;;;5.20;99.90;;;;;;5079922;28;20051;-61
2021/12/27 08:31:42;;;;;;;24.48;15.65;;;5.20;99.90;;;;;;5093714;28;20071;-61
2021/12/27 08:34:07;;;;;;;22.95;14.98;;;5.20;99.90;;;;;;5075650;28;20094;-61
2021/12/27 08:36:33;;;;;;;21.55;14.80;;;5.20;99.90;;;;;;5093421;28;20387;-61
2021/12/27 08:38:58;;;;;;;25.20;16.42;;;5.30;99.90;;;;;;5093165;28;20442;-61
2021/12/27 08:41:37;;;;;;;22.17;15.65;;;5.30;99.90;;;;;;5091348;28;20038;-62
2021/12/27 08:47:04;;;;;;;21.15;15.07;;;5.20;99.90;;;;;;5082475;28;20165;-61
2021/12/27 08:50:02;;;;;;;;;;;;;;;;;;;;;
2021/12/27 08:52:30;;;;;;;20.48;13.80;;;5.30;99.90;;;;;;5088238;28;20375;-61
2021/12/27 08:54:55;;;;;;;20.33;13.48;;;5.30;99.90;;;;;;5091152;28;20080;-60
2021/12/27 08:57:21;;;;;;;21.08;14.77;;;5.30;99.90;;;;;;5093075;28;20024;-61
2021/12/27 08:59:47;;;;;;;23.55;14.10;;;5.30;99.90;;;;;;5075761;28;20056;-61
2021/12/27 09:02:12;;;;;;;21.38;13.93;;;5.30;99.90;;;;;;5072703;28;20433;-61
2021/12/27 09:04:38;;;;;;;22.90;15.90;;;5.30;99.90;;;;;;5072558;28;20046;-61
2021/12/27 09:07:03;;;;;;;20.58;14.10;;;5.40;99.90;;;;;;5072697;28;20033;-61
2021/12/27 09:09:29;;;;;;;22.83;14.10;;;5.40;99.90;;;;;;5071860;28;20027;-61
2021/12/27 09:11:55;;;;;;;20.20;14.20;;;5.40;99.90;;;;;;5092841;28;20032;-61
2021/12/27 09:14:20;;;;;;;20.95;14.73;;;5.40;99.90;;;;;;5092770;28;20039;-61
2021/12/27 09:16:46;;;;;;;18.13;13.10;;;5.40;99.90;;;;;;5091759;28;20028;-61
2021/12/27 09:19:14;;;;;;;21.98;14.45;;;5.40;99.90;;;;;;5070520;28;20012;-61
2021/12/27 09:22:16;;;;;;;;;;;;;;;;;;;;;
2021/12/27 09:24:42;;;;;;;21.10;13.10;;;5.40;99.90;;;;;;5072101;28;20068;-61
2021/12/27 09:27:08;;;;;;;19.35;13.00;;;5.50;99.90;;;;;;5072367;28;20096;-61
2021/12/27 09:29:34;;;;;;;20.00;13.30;;;5.50;99.90;;;;;;5072189;28;20507;-62
2021/12/27 09:31:59;;;;;;;18.15;12.77;;;5.60;99.90;;;;;;5052673;28;20445;-61
2021/12/27 09:34:25;;;;;;;15.85;11.65;;;5.70;99.90;;;;;;5050043;28;20078;-61
2021/12/27 09:37:27;;;;;;;16.13;11.30;;;5.90;99.90;;;;;;5071724;28;20025;-61
2021/12/27 09:39:55;;;;;;;19.00;13.00;;;6.10;99.90;;;;;;5084276;28;20112;-61
2021/12/27 09:42:25;;;;;;;17.67;11.48;;;6.20;99.90;;;;;;5072418;28;20119;-61
2021/12/27 09:44:53;;;;;;;15.82;11.02;;;6.30;99.90;;;;;;5066728;28;20167;-61
2021/12/27 09:47:19;;;;;;;16.08;11.40;;;6.40;99.90;;;;;;5069992;28;20544;-61
2021/12/27 09:49:45;;;;;;;14.27;10.32;;;6.40;99.90;;;;;;5045502;28;20099;-61
2021/12/27 09:52:12;;;;;;;13.23;9.85;;;6.50;99.90;;;;;;5067664;28;20507;-61
2021/12/27 09:54:38;;;;;;;13.13;9.90;;;6.50;99.90;;;;;;5069754;28;20362;-62
2021/12/27 09:57:04;;;;;;;13.45;9.90;;;6.50;99.90;;;;;;5048844;28;20036;-61
2021/12/27 09:59:29;;;;;;;14.88;9.48;;;6.50;99.90;;;;;;5050153;28;20120;-61
2021/12/27 10:01:55;;;;;;;12.02;8.93;;;6.50;99.90;;;;;;5066898;28;20028;-61
2021/12/27 10:04:30;;;;;;;13.40;9.82;;;6.40;99.90;;;;;;5049875;28;20477;-62
2021/12/27 10:06:56;;;;;;;13.90;9.38;;;6.40;99.90;;;;;;5066089;28;20028;-60
2021/12/27 10:09:21;;;;;;;12.20;8.95;;;6.30;99.90;;;;;;5080070;28;20020;-61
2021/12/27 10:11:47;;;;;;;13.45;9.32;;;6.30;99.90;;;;;;5063258;28;20028;-61
2021/12/27 10:14:15;;;;;;;13.30;9.70;;;6.30;99.90;;;;;;5049036;28;20028;-61
2021/12/27 10:16:43;;;;;;;15.35;9.77;;;6.40;99.90;;;;;;5065345;28;20023;-61
2021/12/27 10:19:10;;;;;;;11.73;9.27;;;6.50;99.90;;;;;;5078191;28;20081;-61
2021/12/27 10:21:41;;;;;;;11.68;9.40;;;6.50;99.90;;;;;;5079506;28;20048;-61
2021/12/27 10:24:18;;;;;;;13.15;9.38;;;6.50;99.90;;;;;;5102561;28;20054;-61
2021/12/27 10:26:46;;;;;;;14.30;9.38;;;6.60;99.90;;;;;;5083454;28;20050;-61
2021/12/27 10:29:18;;;;;;;11.95;8.80;;;6.60;99.90;;;;;;5085668;28;20480;-61
2021/12/27 10:31:55;;;;;;;13.07;8.82;;;6.60;99.90;;;;;;5103490;28;20028;-61
2021/12/27 10:34:23;;;;;;;11.05;7.78;;;6.70;99.90;;;;;;5094222;28;20039;-61
2021/12/27 10:37:24;;;;;;;12.75;8.80;;;6.70;99.90;;;;;;5069282;28;20024;-61
2021/12/27 10:40:09;;;;;;;11.52;8.90;;;6.80;99.90;;;;;;5104121;28;20126;-61
2021/12/27 10:42:40;;;;;;;10.07;7.32;;;6.90;99.90;;;;;;5091821;28;20115;-61
2021/12/27 10:45:13;;;;;;;11.10;7.53;;;7.00;99.90;;;;;;5102113;28;20545;-61
2021/12/27 10:47:39;;;;;;;12.73;8.95;;;7.20;99.90;;;;;;5084694;28;20027;-61
2021/12/27 10:50:15;;;;;;;13.77;8.73;;;7.30;99.90;;;;;;5095892;28;20438;-61
2021/12/27 10:52:44;;;;;;;9.43;6.97;;;7.80;99.90;;;;;;5077915;28;20410;-61
2021/12/27 10:55:11;;;;;;;10.15;7.68;;;8.70;99.90;;;;;;5103556;28;20091;-61
2021/12/27 10:57:37;;;;;;;9.73;7.28;;;9.20;99.90;;;;;;5102275;28;20103;-61
2021/12/27 11:00:30;;;;;;;9.68;7.30;;;9.50;99.90;;;;;;5096145;28;20110;-61
2021/12/27 11:02:59;;;;;;;10.90;7.40;;;9.80;99.90;;;;;;5075213;28;20712;-61
2021/12/27 11:05:26;;;;;;;8.18;5.95;;;9.90;99.90;;;;;;5081455;28;20512;-61
2021/12/27 11:07:54;;;;;;;12.18;8.05;;;9.40;99.90;;;;;;5097492;28;20047;-61
2021/12/27 11:10:22;;;;;;;8.73;6.40;;;8.80;99.90;;;;;;5107594;28;20032;-61
2021/12/27 11:12:50;;;;;;;10.38;7.47;;;8.30;99.90;;;;;;5095324;28;20022;-61
2021/12/27 11:15:16;;;;;;;10.57;7.32;;;8.00;99.90;;;;;;5102526;28;20026;-61
2021/12/27 11:17:42;;;;;;;11.55;7.85;;;7.80;99.90;;;;;;5107055;28;20030;-61
2021/12/27 11:20:09;;;;;;;10.85;7.72;;;7.60;99.90;;;;;;5098491;28;20107;-61
2021/12/27 11:22:41;;;;;;;11.80;8.25;;;7.50;99.90;;;;;;5092103;28;20057;-61
2021/12/27 11:25:19;;;;;;;11.95;8.27;;;7.40;99.90;;;;;;5102012;28;20019;-61
2021/12/27 11:27:45;;;;;;;11.27;8.40;;;7.40;99.90;;;;;;5096209;28;20118;-61
2021/12/27 11:30:12;;;;;;;13.20;8.23;;;7.30;99.90;;;;;;5086306;28;20076;-61
2021/12/27 11:33:12;;;;;;;12.68;9.15;;;7.30;99.90;;;;;;5075580;28;20027;-61
2021/12/27 11:36:02;;;;;;;15.23;9.32;;;7.20;99.90;;;;;;5097463;28;20034;-62
2021/12/27 11:38:31;;;;;;;12.55;9.15;;;7.30;99.90;;;;;;5051644;28;20024;-61
2021/12/27 11:40:58;;;;;;;12.73;9.35;;;7.30;99.90;;;;;;5090143;28;20020;-61
2021/12/27 11:43:24;;;;;;;12.93;8.93;;;7.40;99.90;;;;;;5092530;28;20028;-61
2021/12/27 11:45:54;;;;;;;12.07;7.70;;;7.40;99.90;;;;;;5106654;28;20038;-61
2021/12/27 11:48:22;;;;;;;13.45;8.45;;;7.50;99.90;;;;;;5093650;28;20085;-61
2021/12/27 11:50:56;;;;;;;13.90;9.00;;;7.60;99.90;;;;;;5098754;28;20039;-61
2021/12/27 11:53:41;;;;;;;12.35;8.75;;;7.60;99.90;;;;;;5104345;28;20534;-61
2021/12/27 11:56:08;;;;;;;11.45;8.73;;;7.70;99.90;;;;;;5091404;28;20024;-61
2021/12/27 11:58:53;;;;;;;14.38;9.18;;;7.60;99.90;;;;;;5079024;28;20019;-61
2021/12/27 12:01:21;;;;;;;10.77;7.93;;;7.60;99.90;;;;;;5105129;28;20472;-61
2021/12/27 12:03:48;;;;;;;10.82;7.75;;;7.60;99.90;;;;;;5074161;28;20511;-61
2021/12/27 12:06:43;;;;;;;10.80;8.00;;;7.60;99.90;;;;;;5047593;28;20036;-61
2021/12/27 12:09:18;;;;;;;12.02;8.07;;;7.70;99.90;;;;;;5076434;28;20565;-61
2021/12/27 12:11:45;;;;;;;11.07;8.32;;;7.60;99.90;;;;;;5075042;28;20024;-61
2021/12/27 12:14:24;;;;;;;11.10;8.75;;;7.60;99.90;;;;;;5091197;28;20028;-61
2021/12/27 12:16:50;;;;;;;12.73;7.78;;;7.60;99.90;;;;;;5074566;28;20457;-61
2021/12/27 12:19:16;;;;;;;11.05;8.90;;;7.60;99.90;;;;;;5093342;28;20024;-61
2021/12/27 12:21:44;;;;;;;14.25;8.93;;;7.60;99.90;;;;;;5087989;28;20415;-61
2021/12/27 12:24:12;;;;;;;11.05;8.45;;;7.60;99.90;;;;;;5065293;28;20062;-61
2021/12/27 12:27:12;;;;;;;12.63;9.15;;;7.60;99.90;;;;;;5080933;28;20468;-61
2021/12/27 12:29:39;;;;;;;11.98;9.10;;;7.70;99.90;;;;;;5092194;28;20070;-62
2021/12/27 12:32:07;;;;;;;11.25;8.30;;;7.80;99.90;;;;;;5074514;28;20039;-61
2021/12/27 12:34:34;;;;;;;11.77;7.97;;;7.90;99.90;;;;;;5108679;28;20544;-61
2021/12/27 12:37:02;;;;;;;11.55;8.07;;;8.00;99.90;;;;;;5065590;28;20230;-61
2021/12/27 12:39:36;;;;;;;12.68;8.15;;;8.10;99.90;;;;;;5066465;28;20032;-61
2021/12/27 12:42:14;;;;;;;12.27;8.50;;;8.10;99.90;;;;;;5064767;28;20437;-61
2021/12/27 12:44:46;;;;;;;10.82;8.50;;;8.10;99.90;;;;;;5089141;28;20032;-61
2021/12/27 12:47:18;;;;;;;12.55;9.20;;;8.00;99.90;;;;;;5084470;28;20035;-61
2021/12/27 12:49:44;;;;;;;10.52;8.35;;;8.00;99.90;;;;;;5093301;28;20028;-61
2021/12/27 12:52:11;;;;;;;12.40;8.38;;;7.90;99.90;;;;;;5092063;28;20069;-61
2021/12/27 12:54:40;;;;;;;13.90;8.93;;;7.90;99.90;;;;;;5108807;28;20024;-61
2021/12/27 12:57:15;;;;;;;13.48;8.88;;;7.90;99.90;;;;;;5081836;28;20024;-61
2021/12/27 12:59:45;;;;;;;12.75;9.32;;;7.90;99.90;;;;;;5094370;28;20606;-61
2021/12/27 13:02:19;;;;;;;11.20;8.43;;;8.00;99.90;;;;;;5091532;28;20043;-61
2021/12/27 13:04:49;;;;;;;12.73;8.98;;;8.00;99.90;;;;;;5091649;28;20019;-61